^^
Saratoga-Weather Station Historical Data
Daily Summary for May 24, 2020 Units:  Both    English   Metric
Daily Weekly Monthly Yearly Custom
  High: Low: Average:
Temperature: 56.1 °F /  13.4 °C 50.4 °F /  10.2 °C 54.1 °F /  12.3 °C
Dew Point: 54.5 °F /  12.5 °C 48 °F /  8.9 °C 51.6 °F /  10.9 °C
Humidity: 95% 83% 91%
Wind Speed: 8mph /  12.9km/h - 1.4mph /  2.2km/h
Wind Gust: 10mph /  16.1km/h - -
Wind- - WSW
Pressure: 30 in /  1015.9 hPa 30 in /  1014.2 hPa -
Precipitation: 0 in /  0.0 mm    
Historical Graphs
 
 
Tabular Data for May 24, 2020
Time Temperature Dew Point Pressure Wind Wind Speed Wind Gust Humidity Rainfall Rate (Hourly) solar
00:00 56.1 °F /  13.4 °C 54.5 °F /  12.5 °C 30in /  1014.2hPa West 2mph /  3.2km/h 2mph /  3.2km/h 94% 0in /  0.0mm 0 W/m2
00:05 55.8 °F /  13.2 °C 53.8 °F /  12.1 °C 30in /  1014.2hPa NNE 0.9mph /  1.4km/h 2mph /  3.2km/h 93% 0in /  0.0mm 0 W/m2
00:10 55.6 °F /  13.1 °C 54 °F /  12.2 °C 30in /  1014.2hPa Calm   4mph /  6.4km/h 94% 0in /  0.0mm 0 W/m2
00:15 55.4 °F /  13 °C 53.8 °F /  12.1 °C 30in /  1014.2hPa Calm     94% 0in /  0.0mm 0 W/m2
00:20 55.2 °F /  12.9 °C 53.6 °F /  12 °C 30in /  1014.6hPa West 0.9mph /  1.4km/h 3mph /  4.8km/h 94% 0in /  0.0mm 0 W/m2
00:25 55 °F /  12.8 °C 53.4 °F /  11.9 °C 30in /  1014.6hPa West 2mph /  3.2km/h 2mph /  3.2km/h 94% 0in /  0.0mm 0 W/m2
00:30 55 °F /  12.8 °C 53.4 °F /  11.9 °C 30in /  1014.6hPa WNW 0.9mph /  1.4km/h 2mph /  3.2km/h 94% 0in /  0.0mm 0 W/m2
00:35 55 °F /  12.8 °C 53.6 °F /  12 °C 30in /  1014.6hPa WNW 0.9mph /  1.4km/h 2mph /  3.2km/h 95% 0in /  0.0mm 0 W/m2
00:40 55 °F /  12.8 °C 53.6 °F /  12 °C 30in /  1014.6hPa West 0.9mph /  1.4km/h 1mph /  1.6km/h 95% 0in /  0.0mm 0 W/m2
00:45 55 °F /  12.8 °C 53.6 °F /  12 °C 30in /  1014.6hPa West 6mph /  9.7km/h 6mph /  9.7km/h 95% 0in /  0.0mm 0 W/m2
00:50 55.2 °F /  12.9 °C 53.8 °F /  12.1 °C 30in /  1014.6hPa WNW 2mph /  3.2km/h 3mph /  4.8km/h 95% 0in /  0.0mm 0 W/m2
00:55 55.2 °F /  12.9 °C 53.6 °F /  12 °C 30in /  1014.6hPa WNW 2.9mph /  4.7km/h 4mph /  6.4km/h 94% 0in /  0.0mm 0 W/m2
01:00 55.2 °F /  12.9 °C 53.6 °F /  12 °C 30in /  1014.6hPa West 0.9mph /  1.4km/h 4mph /  6.4km/h 94% 0in /  0.0mm 0 W/m2
01:05 55.2 °F /  12.9 °C 53.6 °F /  12 °C 30in /  1014.6hPa West 2.9mph /  4.7km/h 4mph /  6.4km/h 94% 0in /  0.0mm 0 W/m2
01:10 55.2 °F /  12.9 °C 53.6 °F /  12 °C 30in /  1014.6hPa West 6mph /  9.7km/h 6mph /  9.7km/h 94% 0in /  0.0mm 0 W/m2
01:15 55 °F /  12.8 °C 53.4 °F /  11.9 °C 30in /  1014.6hPa West 2mph /  3.2km/h 2mph /  3.2km/h 94% 0in /  0.0mm 0 W/m2
01:20 55 °F /  12.8 °C 53.4 °F /  11.9 °C 30in /  1014.6hPa WSW 2mph /  3.2km/h 4mph /  6.4km/h 94% 0in /  0.0mm 0 W/m2
01:25 54.9 °F /  12.7 °C 53.2 °F /  11.8 °C 30in /  1014.6hPa Calm   2mph /  3.2km/h 94% 0in /  0.0mm 0 W/m2
01:30 54.7 °F /  12.6 °C 53.1 °F /  11.7 °C 30in /  1014.6hPa Calm   1mph /  1.6km/h 94% 0in /  0.0mm 0 W/m2
01:35 54.7 °F /  12.6 °C 53.1 °F /  11.7 °C 30in /  1014.6hPa Calm   2mph /  3.2km/h 94% 0in /  0.0mm 0 W/m2
01:40 54.5 °F /  12.5 °C 52.9 °F /  11.6 °C 30in /  1014.6hPa WNW 2mph /  3.2km/h 4mph /  6.4km/h 94% 0in /  0.0mm 0 W/m2
01:45 54.3 °F /  12.4 °C 52.7 °F /  11.5 °C 30in /  1014.6hPa WSW 0.9mph /  1.4km/h 2mph /  3.2km/h 94% 0in /  0.0mm 0 W/m2
01:50 54.3 °F /  12.4 °C 52.7 °F /  11.5 °C 30in /  1014.6hPa Calm   1mph /  1.6km/h 94% 0in /  0.0mm 0 W/m2
01:55 54.3 °F /  12.4 °C 52.7 °F /  11.5 °C 30in /  1014.6hPa Calm     94% 0in /  0.0mm 0 W/m2
02:00 54.3 °F /  12.4 °C 52.7 °F /  11.5 °C 30in /  1014.6hPa SSW 0.9mph /  1.4km/h 4mph /  6.4km/h 94% 0in /  0.0mm 0 W/m2
02:05 54.3 °F /  12.4 °C 52.9 °F /  11.6 °C 30in /  1014.6hPa Calm   2mph /  3.2km/h 95% 0in /  0.0mm 0 W/m2
02:10 54.3 °F /  12.4 °C 52.7 °F /  11.5 °C 30in /  1014.6hPa Calm   4mph /  6.4km/h 94% 0in /  0.0mm 0 W/m2
02:15 54.3 °F /  12.4 °C 52.9 °F /  11.6 °C 30in /  1014.6hPa Calm     95% 0in /  0.0mm 0 W/m2
02:20 54.3 °F /  12.4 °C 52.7 °F /  11.5 °C 30in /  1014.6hPa WNW 2.9mph /  4.7km/h 6mph /  9.7km/h 94% 0in /  0.0mm 0 W/m2
02:25 54.3 °F /  12.4 °C 52.9 °F /  11.6 °C 30in /  1014.6hPa North 0.9mph /  1.4km/h 2mph /  3.2km/h 95% 0in /  0.0mm 0 W/m2
02:30 54.5 °F /  12.5 °C 53.1 °F /  11.7 °C 30in /  1014.6hPa Calm   5mph /  8km/h 95% 0in /  0.0mm 0 W/m2
02:35 54.5 °F /  12.5 °C 53.1 °F /  11.7 °C 30in /  1014.6hPa Calm   3mph /  4.8km/h 95% 0in /  0.0mm 0 W/m2
02:40 54.5 °F /  12.5 °C 53.1 °F /  11.7 °C 30in /  1014.6hPa NNW 0.9mph /  1.4km/h 4mph /  6.4km/h 95% 0in /  0.0mm 0 W/m2
02:45 54.7 °F /  12.6 °C 53.1 °F /  11.7 °C 30in /  1014.6hPa Calm   3mph /  4.8km/h 94% 0in /  0.0mm 0 W/m2
02:50 54.7 °F /  12.6 °C 53.1 °F /  11.7 °C 30in /  1014.6hPa WNW 2mph /  3.2km/h 3mph /  4.8km/h 94% 0in /  0.0mm 0 W/m2
02:55 54.7 °F /  12.6 °C 53.1 °F /  11.7 °C 30in /  1014.6hPa WNW 0.9mph /  1.4km/h 3mph /  4.8km/h 94% 0in /  0.0mm 0 W/m2
03:00 54.9 °F /  12.7 °C 53.2 °F /  11.8 °C 30in /  1014.6hPa Calm   3mph /  4.8km/h 94% 0in /  0.0mm 0 W/m2
03:05 54.9 °F /  12.7 °C 53.2 °F /  11.8 °C 30in /  1014.6hPa NW 0.9mph /  1.4km/h 5mph /  8km/h 94% 0in /  0.0mm 0 W/m2
03:10 54.9 °F /  12.7 °C 53.2 °F /  11.8 °C 30in /  1014.6hPa North 0.9mph /  1.4km/h 2mph /  3.2km/h 94% 0in /  0.0mm 0 W/m2
03:15 55 °F /  12.8 °C 53.4 °F /  11.9 °C 30in /  1014.6hPa NE 0.9mph /  1.4km/h 5mph /  8km/h 94% 0in /  0.0mm 0 W/m2
03:20 55 °F /  12.8 °C 53.4 °F /  11.9 °C 30in /  1014.6hPa Calm   1mph /  1.6km/h 94% 0in /  0.0mm 0 W/m2
03:26 55 °F /  12.8 °C 53.4 °F /  11.9 °C 30in /  1014.6hPa ESE 6mph /  9.7km/h 6mph /  9.7km/h 94% 0in /  0.0mm 0 W/m2
03:31 54.9 °F /  12.7 °C 53.2 °F /  11.8 °C 30in /  1014.6hPa WSW 2.9mph /  4.7km/h 4mph /  6.4km/h 94% 0in /  0.0mm 0 W/m2
03:36 54.9 °F /  12.7 °C 53.2 °F /  11.8 °C 30in /  1014.9hPa Calm   3mph /  4.8km/h 94% 0in /  0.0mm 0 W/m2
03:41 54.9 °F /  12.7 °C 53.2 °F /  11.8 °C 30in /  1014.6hPa Calm   2mph /  3.2km/h 94% 0in /  0.0mm 0 W/m2
03:46 54.9 °F /  12.7 °C 53.2 °F /  11.8 °C 30in /  1014.9hPa South 0.9mph /  1.4km/h 6mph /  9.7km/h 94% 0in /  0.0mm 0 W/m2
03:51 54.9 °F /  12.7 °C 53.2 °F /  11.8 °C 30in /  1014.9hPa Calm     94% 0in /  0.0mm 0 W/m2
03:56 54.9 °F /  12.7 °C 53.2 °F /  11.8 °C 30in /  1014.9hPa WNW 2.9mph /  4.7km/h 7mph /  11.3km/h 94% 0in /  0.0mm 0 W/m2
04:01 55 °F /  12.8 °C 53.4 °F /  11.9 °C 30in /  1014.9hPa Calm   2mph /  3.2km/h 94% 0in /  0.0mm 0 W/m2
04:06 55 °F /  12.8 °C 53.4 °F /  11.9 °C 30in /  1014.9hPa Calm   3mph /  4.8km/h 94% 0in /  0.0mm 0 W/m2
04:11 55.2 °F /  12.9 °C 53.2 °F /  11.8 °C 30in /  1014.9hPa Calm   2mph /  3.2km/h 93% 0in /  0.0mm 0 W/m2
04:16 55.2 °F /  12.9 °C 53.2 °F /  11.8 °C 30in /  1014.9hPa Calm   1mph /  1.6km/h 93% 0in /  0.0mm 0 W/m2
04:21 55.2 °F /  12.9 °C 53.2 °F /  11.8 °C 30in /  1014.9hPa West 0.9mph /  1.4km/h 2mph /  3.2km/h 93% 0in /  0.0mm 0 W/m2
04:26 55.2 °F /  12.9 °C 53.2 °F /  11.8 °C 30in /  1014.9hPa West 0.9mph /  1.4km/h 3mph /  4.8km/h 93% 0in /  0.0mm 0 W/m2
04:31 55.2 °F /  12.9 °C 53.2 °F /  11.8 °C 30in /  1014.9hPa WNW 4.9mph /  7.9km/h 6mph /  9.7km/h 93% 0in /  0.0mm 0 W/m2
04:36 55.2 °F /  12.9 °C 53.2 °F /  11.8 °C 30in /  1014.9hPa West 2.9mph /  4.7km/h 4mph /  6.4km/h 93% 0in /  0.0mm 0 W/m2
04:41 55.4 °F /  13 °C 53.4 °F /  11.9 °C 30in /  1014.9hPa WNW 2mph /  3.2km/h 8mph /  12.9km/h 93% 0in /  0.0mm 0 W/m2
04:46 55.4 °F /  13 °C 53.4 °F /  11.9 °C 30in /  1014.9hPa WNW 2.9mph /  4.7km/h 6mph /  9.7km/h 93% 0in /  0.0mm 0 W/m2
04:51 55.4 °F /  13 °C 53.1 °F /  11.7 °C 30in /  1014.9hPa WSW 0.9mph /  1.4km/h 3mph /  4.8km/h 92% 0in /  0.0mm 0 W/m2
04:56 55.2 °F /  12.9 °C 52.9 °F /  11.6 °C 30in /  1014.9hPa NNW 2mph /  3.2km/h 3mph /  4.8km/h 92% 0in /  0.0mm 0 W/m2
05:01 55.2 °F /  12.9 °C 52.9 °F /  11.6 °C 30in /  1014.9hPa Calm   3mph /  4.8km/h 92% 0in /  0.0mm 0 W/m2
05:06 55 °F /  12.8 °C 52.7 °F /  11.5 °C 30in /  1014.9hPa West 2mph /  3.2km/h 3mph /  4.8km/h 92% 0in /  0.0mm 0 W/m2
05:11 54.9 °F /  12.7 °C 52.5 °F /  11.4 °C 30in /  1014.9hPa NNW 2.9mph /  4.7km/h 4mph /  6.4km/h 92% 0in /  0.0mm 0 W/m2
05:16 54.9 °F /  12.7 °C 52.5 °F /  11.4 °C 30in /  1014.9hPa West 2mph /  3.2km/h 3mph /  4.8km/h 92% 0in /  0.0mm 0 W/m2
05:21 54.7 °F /  12.6 °C 52.3 °F /  11.3 °C 30in /  1014.9hPa Calm   4mph /  6.4km/h 92% 0in /  0.0mm 0 W/m2
05:26 54.7 °F /  12.6 °C 52.3 °F /  11.3 °C 30in /  1014.9hPa Calm   1mph /  1.6km/h 92% 0in /  0.0mm 0 W/m2
05:31 54.3 °F /  12.4 °C 52.3 °F /  11.3 °C 30in /  1014.9hPa NW 2mph /  3.2km/h 4mph /  6.4km/h 93% 0in /  0.0mm 0 W/m2
05:36 54.1 °F /  12.3 °C 52.2 °F /  11.2 °C 30in /  1014.9hPa Calm   3mph /  4.8km/h 93% 0in /  0.0mm 0 W/m2
05:41 54.1 °F /  12.3 °C 52.2 °F /  11.2 °C 30in /  1014.9hPa NW 2mph /  3.2km/h 4mph /  6.4km/h 93% 0in /  0.0mm 0 W/m2
05:46 54.1 °F /  12.3 °C 52.2 °F /  11.2 °C 30in /  1014.9hPa NW 2.9mph /  4.7km/h 7mph /  11.3km/h 93% 0in /  0.0mm 0 W/m2
05:51 54.1 °F /  12.3 °C 52.2 °F /  11.2 °C 30in /  1014.9hPa Calm   4mph /  6.4km/h 93% 0in /  0.0mm 0 W/m2
05:56 54.3 °F /  12.4 °C 52.3 °F /  11.3 °C 30in /  1014.9hPa NNW 0.9mph /  1.4km/h 6mph /  9.7km/h 93% 0in /  0.0mm 0 W/m2
06:01 54.3 °F /  12.4 °C 52.3 °F /  11.3 °C 30in /  1014.9hPa NNW 0.9mph /  1.4km/h 2mph /  3.2km/h 93% 0in /  0.0mm 0 W/m2
06:06 54.3 °F /  12.4 °C 52.3 °F /  11.3 °C 30in /  1014.9hPa Calm   3mph /  4.8km/h 93% 0in /  0.0mm 0 W/m2
06:11 54.5 °F /  12.5 °C 52.5 °F /  11.4 °C 30in /  1014.9hPa SW 4.9mph /  7.9km/h 8mph /  12.9km/h 93% 0in /  0.0mm 0 W/m2
06:16 54.7 °F /  12.6 °C 52.3 °F /  11.3 °C 30in /  1014.9hPa NNW 2mph /  3.2km/h 3mph /  4.8km/h 92% 0in /  0.0mm 0 W/m2
06:21 54.7 °F /  12.6 °C 52.3 °F /  11.3 °C 30in /  1015.2hPa NW 0.9mph /  1.4km/h 8mph /  12.9km/h 92% 0in /  0.0mm 0 W/m2
06:26 54.7 °F /  12.6 °C 52.3 °F /  11.3 °C 30in /  1015.2hPa NW 4.9mph /  7.9km/h 8mph /  12.9km/h 92% 0in /  0.0mm 0 W/m2
06:31 54.7 °F /  12.6 °C 52.3 °F /  11.3 °C 30in /  1015.2hPa NW 0.9mph /  1.4km/h 3mph /  4.8km/h 92% 0in /  0.0mm 0 W/m2
06:36 54.7 °F /  12.6 °C 52.2 °F /  11.2 °C 30in /  1014.9hPa West 8mph /  12.9km/h 8mph /  12.9km/h 91% 0in /  0.0mm 0 W/m2
06:41 54.7 °F /  12.6 °C 52.2 °F /  11.2 °C 30in /  1014.9hPa NW 0.9mph /  1.4km/h 4mph /  6.4km/h 91% 0in /  0.0mm 0 W/m2
06:46 54.7 °F /  12.6 °C 51.8 °F /  11 °C 30in /  1014.9hPa WNW 2mph /  3.2km/h 3mph /  4.8km/h 90% 0in /  0.0mm 0 W/m2
06:51 54.7 °F /  12.6 °C 51.4 °F /  10.8 °C 30in /  1014.9hPa WSW 2mph /  3.2km/h 10mph /  16.1km/h 89% 0in /  0.0mm 0 W/m2
06:56 54.5 °F /  12.5 °C 51.1 °F /  10.6 °C 30in /  1015.2hPa WNW 4mph /  6.4km/h 8mph /  12.9km/h 88% 0in /  0.0mm 0 W/m2
07:01 54.3 °F /  12.4 °C 50.9 °F /  10.5 °C 30in /  1014.9hPa West 0.9mph /  1.4km/h 10mph /  16.1km/h 88% 0in /  0.0mm 0 W/m2
07:06 54.1 °F /  12.3 °C 50.7 °F /  10.4 °C 30in /  1015.2hPa NW 4mph /  6.4km/h 5mph /  8km/h 88% 0in /  0.0mm 0 W/m2
07:11 54 °F /  12.2 °C 50.2 °F /  10.1 °C 30in /  1015.2hPa NW 2.9mph /  4.7km/h 6mph /  9.7km/h 87% 0in /  0.0mm 0 W/m2
07:17 54 °F /  12.2 °C 50.5 °F /  10.3 °C 30in /  1015.2hPa Calm   1mph /  1.6km/h 88% 0in /  0.0mm 0 W/m2
07:22 53.8 °F /  12.1 °C 50.4 °F /  10.2 °C 30in /  1015.2hPa Calm   6mph /  9.7km/h 88% 0in /  0.0mm 0 W/m2
07:27 53.4 °F /  11.9 °C 50 °F /  10 °C 30in /  1015.2hPa Calm   4mph /  6.4km/h 88% 0in /  0.0mm 0 W/m2
07:32 53.2 °F /  11.8 °C 49.8 °F /  9.9 °C 30in /  1015.2hPa West 2mph /  3.2km/h 3mph /  4.8km/h 88% 0in /  0.0mm 0 W/m2
07:37 53.2 °F /  11.8 °C 49.8 °F /  9.9 °C 30in /  1015.2hPa NW 2mph /  3.2km/h 4mph /  6.4km/h 88% 0in /  0.0mm 0 W/m2
07:42 53.1 °F /  11.7 °C 49.6 °F /  9.8 °C 30in /  1015.2hPa Calm   4mph /  6.4km/h 88% 0in /  0.0mm 0 W/m2
07:47 52.9 °F /  11.6 °C 49.5 °F /  9.7 °C 30in /  1015.2hPa WNW 0.9mph /  1.4km/h 7mph /  11.3km/h 88% 0in /  0.0mm 0 W/m2
07:52 52.7 °F /  11.5 °C 49.3 °F /  9.6 °C 30in /  1015.2hPa WNW 2mph /  3.2km/h 4mph /  6.4km/h 88% 0in /  0.0mm 0 W/m2
07:57 52.5 °F /  11.4 °C 49.1 °F /  9.5 °C 30in /  1015.2hPa NW 0.9mph /  1.4km/h 7mph /  11.3km/h 88% 0in /  0.0mm 0 W/m2
08:02 52.3 °F /  11.3 °C 48.9 °F /  9.4 °C 30in /  1015.6hPa NW 0.9mph /  1.4km/h 3mph /  4.8km/h 88% 0in /  0.0mm 0 W/m2
08:07 52.3 °F /  11.3 °C 48.9 °F /  9.4 °C 30in /  1015.6hPa Calm   4mph /  6.4km/h 88% 0in /  0.0mm 0 W/m2
08:12 52.2 °F /  11.2 °C 48.7 °F /  9.3 °C 30in /  1015.6hPa NNE 0.9mph /  1.4km/h 2mph /  3.2km/h 88% 0in /  0.0mm 0 W/m2
08:17 52.2 °F /  11.2 °C 48.7 °F /  9.3 °C 30in /  1015.6hPa NW 0.9mph /  1.4km/h 2mph /  3.2km/h 88% 0in /  0.0mm 5 W/m2
08:22 52 °F /  11.1 °C 48.9 °F /  9.4 °C 30in /  1015.6hPa NNE 2mph /  3.2km/h 2mph /  3.2km/h 89% 0in /  0.0mm 5 W/m2
08:27 51.8 °F /  11 °C 48.7 °F /  9.3 °C 30in /  1015.6hPa Calm   2mph /  3.2km/h 89% 0in /  0.0mm 7 W/m2
08:32 51.4 °F /  10.8 °C 48.4 °F /  9.1 °C 30in /  1015.9hPa Calm   2mph /  3.2km/h 89% 0in /  0.0mm 11 W/m2
08:37 51.3 °F /  10.7 °C 48.4 °F /  9.1 °C 30in /  1015.9hPa Calm     90% 0in /  0.0mm 12 W/m2
08:42 51.1 °F /  10.6 °C 48.2 °F /  9 °C 30in /  1015.9hPa West 0.9mph /  1.4km/h 2mph /  3.2km/h 90% 0in /  0.0mm 16 W/m2
08:47 50.9 °F /  10.5 °C 48.4 °F /  9.1 °C 30in /  1015.9hPa Calm     91% 0in /  0.0mm 16 W/m2
08:52 50.7 °F /  10.4 °C 48.2 °F /  9 °C 30in /  1015.9hPa Calm   3mph /  4.8km/h 91% 0in /  0.0mm 16 W/m2
08:57 50.5 °F /  10.3 °C 48 °F /  8.9 °C 30in /  1015.9hPa West 0.9mph /  1.4km/h 2mph /  3.2km/h 91% 0in /  0.0mm 16 W/m2
09:02 50.4 °F /  10.2 °C 48.2 °F /  9 °C 30in /  1015.9hPa Calm   3mph /  4.8km/h 92% 0in /  0.0mm 23 W/m2
09:07 50.4 °F /  10.2 °C 48.2 °F /  9 °C 30in /  1015.9hPa Calm   1mph /  1.6km/h 92% 0in /  0.0mm 26 W/m2
09:12 50.5 °F /  10.3 °C 48.4 °F /  9.1 °C 30in /  1015.9hPa Calm   4mph /  6.4km/h 92% 0in /  0.0mm 33 W/m2
09:17 50.7 °F /  10.4 °C 48.6 °F /  9.2 °C 30in /  1015.9hPa Calm   1mph /  1.6km/h 92% 0in /  0.0mm 28 W/m2
09:22 51.1 °F /  10.6 °C 48.9 °F /  9.4 °C 30in /  1015.9hPa NNW 2mph /  3.2km/h 5mph /  8km/h 92% 0in /  0.0mm 28 W/m2
09:27 51.3 °F /  10.7 °C 48.7 °F /  9.3 °C 30in /  1015.9hPa NE 0.9mph /  1.4km/h 2mph /  3.2km/h 91% 0in /  0.0mm 47 W/m2
09:32 51.4 °F /  10.8 °C 48.9 °F /  9.4 °C 30in /  1015.9hPa SE 0.9mph /  1.4km/h 4mph /  6.4km/h 91% 0in /  0.0mm 63 W/m2
09:37 51.8 °F /  11 °C 49.3 °F /  9.6 °C 30in /  1015.9hPa Calm   2mph /  3.2km/h 91% 0in /  0.0mm 63 W/m2
09:42 52 °F /  11.1 °C 49.5 °F /  9.7 °C 30in /  1015.9hPa Calm   4mph /  6.4km/h 91% 0in /  0.0mm 26 W/m2
09:47 52.2 °F /  11.2 °C 49.3 °F /  9.6 °C 30in /  1015.9hPa Calm   2mph /  3.2km/h 90% 0in /  0.0mm 62 W/m2
09:52 52.3 °F /  11.3 °C 49.5 °F /  9.7 °C 30in /  1015.9hPa Calm   5mph /  8km/h 90% 0in /  0.0mm 86 W/m2
09:57 52.5 °F /  11.4 °C 49.6 °F /  9.8 °C 30in /  1015.9hPa NNW 2mph /  3.2km/h 3mph /  4.8km/h 90% 0in /  0.0mm 105 W/m2
10:02 52.9 °F /  11.6 °C 50 °F /  10 °C 30in /  1015.9hPa North 2mph /  3.2km/h 5mph /  8km/h 90% 0in /  0.0mm 230 W/m2
10:07 53.2 °F /  11.8 °C 50 °F /  10 °C 30in /  1015.9hPa Calm   4mph /  6.4km/h 89% 0in /  0.0mm 95 W/m2
10:12 53.6 °F /  12 °C 50.4 °F /  10.2 °C 30in /  1015.9hPa NW 2mph /  3.2km/h 2mph /  3.2km/h 89% 0in /  0.0mm 95 W/m2
10:17 53.8 °F /  12.1 °C 50.4 °F /  10.2 °C 30in /  1015.9hPa Calm   5mph /  8km/h 88% 0in /  0.0mm 76 W/m2
10:22 54 °F /  12.2 °C 50.2 °F /  10.1 °C 30in /  1015.9hPa ENE 4.9mph /  7.9km/h 8mph /  12.9km/h 87% 0in /  0.0mm 67 W/m2
10:27 54.1 °F /  12.3 °C 50.4 °F /  10.2 °C 30in /  1015.9hPa North 2mph /  3.2km/h 3mph /  4.8km/h 87% 0in /  0.0mm 70 W/m2
10:32 54.1 °F /  12.3 °C 50 °F /  10 °C 30in /  1015.9hPa NE 0.9mph /  1.4km/h 8mph /  12.9km/h 86% 0in /  0.0mm 104 W/m2
10:37 54.3 °F /  12.4 °C 50.2 °F /  10.1 °C 30in /  1015.9hPa NE 2.9mph /  4.7km/h 4mph /  6.4km/h 86% 0in /  0.0mm 107 W/m2
10:42 54.3 °F /  12.4 °C 50.2 °F /  10.1 °C 30in /  1015.9hPa East 5mph /  8km/h 5mph /  8km/h 86% 0in /  0.0mm 102 W/m2
10:47 54.7 °F /  12.6 °C 50.2 °F /  10.1 °C 30in /  1015.9hPa ENE 0.9mph /  1.4km/h 4mph /  6.4km/h 85% 0in /  0.0mm 118 W/m2
10:52 54.7 °F /  12.6 °C 50.2 °F /  10.1 °C 30in /  1015.9hPa NW 2mph /  3.2km/h 2mph /  3.2km/h 85% 0in /  0.0mm 130 W/m2
10:57 54.9 °F /  12.7 °C 50.4 °F /  10.2 °C 30in /  1015.9hPa NE 2mph /  3.2km/h 4mph /  6.4km/h 85% 0in /  0.0mm 137 W/m2
11:02 55 °F /  12.8 °C 50.4 °F /  10.2 °C 30in /  1015.9hPa West 4mph /  6.4km/h 4mph /  6.4km/h 84% 0in /  0.0mm 153 W/m2
11:07 55 °F /  12.8 °C 50.4 °F /  10.2 °C 30in /  1015.9hPa NNE 0.9mph /  1.4km/h 2mph /  3.2km/h 84% 0in /  0.0mm 118 W/m2
11:12 55.2 °F /  12.9 °C 50.5 °F /  10.3 °C 30in /  1015.9hPa West 6mph /  9.7km/h 6mph /  9.7km/h 84% 0in /  0.0mm 128 W/m2
11:17 55.2 °F /  12.9 °C 50.5 °F /  10.3 °C 30in /  1015.9hPa NE 2.9mph /  4.7km/h 4mph /  6.4km/h 84% 0in /  0.0mm 105 W/m2
11:22 55.2 °F /  12.9 °C 50.2 °F /  10.1 °C 30in /  1015.9hPa Calm   5mph /  8km/h 83% 0in /  0.0mm 114 W/m2
Juneau County Weather
Compliments of Weather Underground - 2 mb